createdAt,value
2022-08-27T00:02:01.418Z,2.93
2022-08-27T00:04:28.502Z,2.23
2022-08-27T00:06:55.339Z,2.20
2022-08-27T00:09:27.122Z,1.93
2022-08-27T00:11:54.981Z,1.80
2022-08-27T00:14:22.326Z,2.20
2022-08-27T00:16:49.217Z,2.27
2022-08-27T00:19:16.301Z,2.00
2022-08-27T00:21:43.545Z,2.00
2022-08-27T00:24:12.238Z,2.20
2022-08-27T00:26:43.203Z,1.93
2022-08-27T00:29:10.424Z,2.00
2022-08-27T00:31:37.691Z,1.90
2022-08-27T00:34:05.272Z,2.10
2022-08-27T00:36:34.464Z,2.40
2022-08-27T00:39:01.195Z,2.23
2022-08-27T00:41:27.952Z,2.03
2022-08-27T00:44:00.015Z,2.00
2022-08-27T00:46:45.439Z,2.10
2022-08-27T00:49:26.975Z,2.30
2022-08-27T00:52:16.952Z,2.20
2022-08-27T00:54:43.747Z,1.87
2022-08-27T00:57:10.626Z,2.03
2022-08-27T00:59:37.544Z,2.17
2022-08-27T01:02:19.375Z,2.10
2022-08-27T01:04:55.706Z,2.23
2022-08-27T01:07:23.303Z,2.30
2022-08-27T01:09:52.023Z,2.00
2022-08-27T01:12:19.926Z,2.50
2022-08-27T01:14:47.419Z,2.20
2022-08-27T01:17:15.081Z,2.07
2022-08-27T01:19:52.061Z,2.03
2022-08-27T01:22:30.421Z,2.63
2022-08-27T01:25:01.464Z,2.20
2022-08-27T01:27:31.440Z,2.00
2022-08-27T01:29:58.575Z,1.97
2022-08-27T01:32:28.483Z,1.97
2022-08-27T01:34:57.209Z,1.90
2022-08-27T01:37:25.540Z,2.23
2022-08-27T01:39:55.443Z,2.03
2022-08-27T01:42:29.284Z,2.47
2022-08-27T01:44:59.710Z,2.30
2022-08-27T01:47:31.165Z,2.37
2022-08-27T01:49:59.166Z,2.23
2022-08-27T01:52:27.605Z,1.97
2022-08-27T01:54:57.936Z,2.37
2022-08-27T01:57:26.275Z,2.10
2022-08-27T01:59:54.853Z,2.30
2022-08-27T02:02:22.653Z,2.40
2022-08-27T02:04:50.984Z,1.90
2022-08-27T02:07:17.955Z,2.20
2022-08-27T02:09:45.837Z,1.93
2022-08-27T02:12:12.654Z,1.80
2022-08-27T02:14:39.421Z,1.73
2022-08-27T02:17:06.733Z,2.00
2022-08-27T02:19:33.549Z,2.20
2022-08-27T02:22:00.726Z,2.10
2022-08-27T02:24:28.484Z,2.20
2022-08-27T02:26:55.806Z,2.50
2022-08-27T02:29:23.725Z,2.40
2022-08-27T02:31:50.777Z,2.37
2022-08-27T02:34:18.070Z,2.20
2022-08-27T02:36:45.010Z,2.00
2022-08-27T02:39:12.054Z,2.40
2022-08-27T02:41:38.717Z,2.33
2022-08-27T02:44:10.594Z,2.30
2022-08-27T02:46:41.806Z,2.60
2022-08-27T02:49:09.557Z,2.10
2022-08-27T02:51:37.168Z,2.27
2022-08-27T02:54:03.985Z,2.20
2022-08-27T02:56:30.739Z,2.40
2022-08-27T02:58:59.143Z,2.10
2022-08-27T03:01:26.079Z,1.97
2022-08-27T03:03:52.788Z,2.17
2022-08-27T03:06:19.502Z,2.00
2022-08-27T03:08:52.210Z,2.40
2022-08-27T03:11:20.188Z,1.80
2022-08-27T03:13:46.892Z,2.33
2022-08-27T03:16:13.661Z,1.90
2022-08-27T03:18:40.667Z,2.50
2022-08-27T03:21:08.269Z,1.70
2022-08-27T03:23:35.505Z,2.00
2022-08-27T03:26:05.141Z,2.10
2022-08-27T03:28:36.176Z,2.17
2022-08-27T03:31:06.436Z,2.20
2022-08-27T03:33:36.017Z,2.20
2022-08-27T03:36:03.240Z,2.17
2022-08-27T03:38:30.003Z,2.00
2022-08-27T03:40:56.778Z,2.37
2022-08-27T03:43:23.643Z,2.50
2022-08-27T03:46:01.662Z,2.10
2022-08-27T03:48:30.493Z,2.23
2022-08-27T03:50:57.504Z,2.10
2022-08-27T03:53:24.837Z,2.10
2022-08-27T03:55:51.530Z,2.40
2022-08-27T03:58:18.310Z,2.40
2022-08-27T04:00:45.148Z,2.20
2022-08-27T04:03:13.597Z,2.53
2022-08-27T04:05:41.022Z,2.27
2022-08-27T04:08:12.351Z,2.27
2022-08-27T04:10:43.058Z,2.47
2022-08-27T04:13:09.831Z,2.63
2022-08-27T04:15:40.728Z,2.20
2022-08-27T04:18:10.156Z,2.50
2022-08-27T04:20:37.119Z,2.80
2022-08-27T04:23:04.788Z,2.50
2022-08-27T04:25:32.079Z,2.73
2022-08-27T04:27:58.958Z,3.13
2022-08-27T04:30:26.864Z,2.97
2022-08-27T04:32:53.563Z,2.20
2022-08-27T04:35:20.339Z,2.50
2022-08-27T04:37:47.233Z,2.53
2022-08-27T04:40:13.948Z,2.23
2022-08-27T04:42:40.813Z,2.63
2022-08-27T04:45:08.126Z,2.37
2022-08-27T04:47:35.375Z,2.33
2022-08-27T04:50:05.204Z,2.23
2022-08-27T04:52:32.718Z,2.93
2022-08-27T04:54:59.996Z,2.60
2022-08-27T04:57:26.617Z,2.40
2022-08-27T04:59:53.546Z,3.27
2022-08-27T05:02:20.266Z,2.47
2022-08-27T05:04:47.041Z,2.30
2022-08-27T05:07:13.823Z,2.80
2022-08-27T05:09:41.640Z,2.60
2022-08-27T05:12:08.657Z,2.50
2022-08-27T05:14:35.344Z,2.47
2022-08-27T05:17:03.473Z,2.57
2022-08-27T05:19:30.182Z,2.40
2022-08-27T05:21:57.192Z,2.67
2022-08-27T05:24:24.041Z,2.27
2022-08-27T05:26:51.584Z,2.70
2022-08-27T05:29:18.378Z,2.50
2022-08-27T05:31:47.012Z,2.37
2022-08-27T05:34:16.455Z,2.30
2022-08-27T05:36:49.317Z,2.30
2022-08-27T05:39:16.886Z,2.60
2022-08-27T05:41:43.636Z,2.60
2022-08-27T05:46:57.162Z,2.40
2022-08-27T05:49:24.021Z,2.50
2022-08-27T05:51:50.881Z,2.20
2022-08-27T05:54:20.908Z,2.20
2022-08-27T05:56:51.550Z,2.43
2022-08-27T05:59:36.851Z,2.37
2022-08-27T06:02:04.005Z,2.30
2022-08-27T06:04:30.768Z,2.43
2022-08-27T06:06:58.001Z,2.40
2022-08-27T06:09:28.816Z,2.50
2022-08-27T06:11:57.213Z,2.60
2022-08-27T06:14:24.163Z,2.63
2022-08-27T06:16:51.053Z,2.60
2022-08-27T06:19:18.136Z,2.60
2022-08-27T06:21:44.954Z,2.70
2022-08-27T06:24:12.981Z,2.30
2022-08-27T06:26:42.344Z,2.40
2022-08-27T06:29:10.148Z,2.47
2022-08-27T06:31:38.837Z,2.47
2022-08-27T06:34:08.627Z,2.50
2022-08-27T06:36:41.090Z,2.27
2022-08-27T06:39:08.856Z,2.37
2022-08-27T06:41:38.773Z,2.40
2022-08-27T06:44:11.576Z,2.73
2022-08-27T06:46:38.929Z,2.30
2022-08-27T06:49:06.457Z,2.23
2022-08-27T06:51:35.416Z,2.30
2022-08-27T06:54:05.652Z,2.03
2022-08-27T06:56:33.297Z,2.50
2022-08-27T06:59:02.095Z,2.57
2022-08-27T07:01:36.178Z,2.33
2022-08-27T07:04:06.714Z,2.13
2022-08-27T07:06:35.057Z,2.40
2022-08-27T07:09:07.796Z,2.13
2022-08-27T07:11:34.792Z,2.20
2022-08-27T07:14:03.810Z,2.40
2022-08-27T07:16:30.894Z,2.00
2022-08-27T07:19:04.441Z,2.40
2022-08-27T07:21:40.202Z,2.30
2022-08-27T07:24:17.008Z,2.13
2022-08-27T07:26:48.522Z,2.50
2022-08-27T07:29:15.807Z,2.47
2022-08-27T07:31:50.819Z,2.50
2022-08-27T07:34:24.795Z,2.00
2022-08-27T07:36:52.145Z,2.77
2022-08-27T07:39:19.048Z,2.43
2022-08-27T07:42:04.731Z,2.43
2022-08-27T07:44:34.418Z,2.50
2022-08-27T07:47:02.147Z,2.20
2022-08-27T07:49:33.433Z,2.20
2022-08-27T07:52:00.321Z,2.23
2022-08-27T07:54:27.574Z,2.13
2022-08-27T07:56:56.109Z,2.00
2022-08-27T07:59:26.124Z,1.87
2022-08-27T08:01:54.720Z,2.00
2022-08-27T08:04:22.713Z,2.00
2022-08-27T08:06:50.065Z,2.27
2022-08-27T08:09:16.964Z,1.93
2022-08-27T08:11:43.756Z,2.00
2022-08-27T08:14:10.922Z,1.80
2022-08-27T08:16:37.673Z,1.93
2022-08-27T08:19:04.411Z,1.93
2022-08-27T08:21:31.148Z,2.00
2022-08-27T08:23:58.212Z,1.77
2022-08-27T08:26:24.955Z,1.90
2022-08-27T08:28:52.743Z,1.67
2022-08-27T08:31:20.185Z,2.27
2022-08-27T08:33:48.958Z,1.63
2022-08-27T08:36:17.420Z,1.53
2022-08-27T08:38:45.565Z,1.57
2022-08-27T08:41:35.896Z,1.67
2022-08-27T08:44:10.474Z,1.53
2022-08-27T08:47:06.572Z,1.77
2022-08-27T08:49:48.444Z,1.63
2022-08-27T08:52:47.878Z,1.80
2022-08-27T08:55:29.036Z,1.60
2022-08-27T08:58:05.402Z,1.20
2022-08-27T09:00:32.798Z,1.70
2022-08-27T09:02:59.823Z,1.60
2022-08-27T09:05:28.763Z,1.50
2022-08-27T09:08:30.937Z,1.63
2022-08-27T09:11:04.453Z,1.50
2022-08-27T09:14:11.518Z,1.67
2022-08-27T09:16:40.623Z,1.80
2022-08-27T09:19:07.687Z,1.60
2022-08-27T09:21:57.181Z,2.10
2022-08-27T09:24:59.864Z,1.40
2022-08-27T09:27:26.649Z,1.50
2022-08-27T09:29:55.790Z,1.30
2022-08-27T09:32:25.319Z,1.50
2022-08-27T09:34:52.838Z,1.50
2022-08-27T09:37:33.916Z,1.27
2022-08-27T09:40:22.568Z,1.57
2022-08-27T09:42:56.696Z,1.50
2022-08-27T09:45:29.907Z,1.67
2022-08-27T09:48:17.940Z,1.40
2022-08-27T09:51:10.585Z,1.67
2022-08-27T09:53:56.094Z,1.40
2022-08-27T09:56:29.790Z,1.60
2022-08-27T09:59:10.974Z,1.90
2022-08-27T10:02:01.004Z,1.50
2022-08-27T10:04:50.321Z,1.53
2022-08-27T10:07:28.942Z,1.33
2022-08-27T10:10:11.427Z,1.60
2022-08-27T10:13:09.131Z,1.30
2022-08-27T10:16:07.444Z,1.40
2022-08-27T10:18:41.311Z,1.63
2022-08-27T10:21:27.887Z,1.37
2022-08-27T10:23:54.748Z,1.50
2022-08-27T10:26:24.883Z,1.87
2022-08-27T10:29:03.694Z,1.60
2022-08-27T10:31:34.826Z,1.30
2022-08-27T10:34:22.985Z,1.50
2022-08-27T10:36:56.171Z,1.40
2022-08-27T10:40:10.384Z,1.40
2022-08-27T10:42:57.875Z,1.70
2022-08-27T10:45:41.809Z,1.43
2022-08-27T10:48:23.323Z,1.23
2022-08-27T10:51:13.464Z,1.60
2022-08-27T10:54:00.709Z,1.60
2022-08-27T10:56:39.954Z,1.40
2022-08-27T10:59:39.875Z,1.50
2022-08-27T11:02:34.553Z,1.50
2022-08-27T11:05:10.217Z,1.60
2022-08-27T11:07:40.023Z,1.20
2022-08-27T11:10:21.053Z,1.50
2022-08-27T11:12:49.707Z,1.70
2022-08-27T11:15:25.565Z,1.70
2022-08-27T11:18:00.383Z,1.30
2022-08-27T11:20:51.801Z,1.43
2022-08-27T11:23:36.843Z,1.63
2022-08-27T11:26:05.453Z,1.30
2022-08-27T11:28:38.840Z,1.30
2022-08-27T11:31:36.022Z,1.57
2022-08-27T11:34:13.862Z,1.27
2022-08-27T11:37:04.992Z,1.57
2022-08-27T11:39:51.528Z,1.63
2022-08-27T11:42:50.181Z,1.87
2022-08-27T11:45:24.611Z,1.40
2022-08-27T11:47:56.916Z,1.53
2022-08-27T11:50:26.514Z,1.80
2022-08-27T11:52:57.448Z,1.63
2022-08-27T11:55:29.703Z,1.80
2022-08-27T11:58:20.226Z,1.70
2022-08-27T12:00:48.531Z,1.73
2022-08-27T12:03:21.446Z,1.70
2022-08-27T12:05:54.322Z,1.50
2022-08-27T12:08:30.384Z,1.30
2022-08-27T12:11:19.056Z,1.60
2022-08-27T12:14:05.578Z,1.80
2022-08-27T12:16:45.748Z,1.37
2022-08-27T12:19:34.278Z,2.03
2022-08-27T12:22:21.204Z,1.80
2022-08-27T12:24:55.637Z,1.80
2022-08-27T12:27:38.370Z,1.60
2022-08-27T12:30:49.956Z,1.73
2022-08-27T12:33:46.549Z,1.67
2022-08-27T12:36:27.979Z,1.40
2022-08-27T12:38:58.414Z,1.73
2022-08-27T12:41:43.600Z,1.80
2022-08-27T12:44:14.508Z,1.50
2022-08-27T12:46:52.137Z,1.80
2022-08-27T12:49:38.380Z,1.50
2022-08-27T12:52:24.821Z,1.53
2022-08-27T12:55:12.832Z,1.93
2022-08-27T12:58:04.340Z,1.53
2022-08-27T13:00:38.412Z,1.67
2022-08-27T13:03:14.412Z,1.43
2022-08-27T13:05:44.293Z,2.20
2022-08-27T13:08:23.532Z,1.60
2022-08-27T13:10:50.963Z,1.60
2022-08-27T13:13:23.880Z,1.83
2022-08-27T13:15:58.705Z,1.70
2022-08-27T13:18:29.509Z,1.83
2022-08-27T13:21:09.433Z,1.90
2022-08-27T13:23:36.192Z,1.87
2022-08-27T13:26:11.415Z,1.77
2022-08-27T13:28:40.428Z,1.80
2022-08-27T13:31:08.032Z,1.50
2022-08-27T13:33:37.668Z,1.73
2022-08-27T13:36:06.820Z,1.80
2022-08-27T13:38:37.406Z,2.20
2022-08-27T13:41:20.263Z,1.90
2022-08-27T13:43:48.518Z,2.30
2022-08-27T13:46:21.406Z,2.30
2022-08-27T13:48:51.263Z,2.43
2022-08-27T13:51:29.615Z,2.43
2022-08-27T13:54:16.190Z,1.97
2022-08-27T13:56:49.140Z,2.00
2022-08-27T13:59:27.316Z,1.60
2022-08-27T14:02:07.485Z,1.87
2022-08-27T14:04:38.982Z,1.80
2022-08-27T14:07:13.654Z,1.77
2022-08-27T14:09:53.943Z,2.50
2022-08-27T14:12:33.151Z,1.90
2022-08-27T14:15:52.096Z,2.27
2022-08-27T14:18:42.162Z,1.73
2022-08-27T14:21:11.970Z,2.07
2022-08-27T14:23:38.685Z,1.80
2022-08-27T14:26:05.646Z,1.93
2022-08-27T14:28:33.010Z,1.73
2022-08-27T14:31:00.095Z,1.70
2022-08-27T14:33:27.117Z,1.40
2022-08-27T14:35:53.960Z,1.90
2022-08-27T14:38:23.249Z,2.20
2022-08-27T14:40:58.524Z,2.33
2022-08-27T14:43:25.940Z,1.83
2022-08-27T14:45:53.507Z,1.63
2022-08-27T14:48:25.939Z,2.00
2022-08-27T14:51:04.178Z,2.00
2022-08-27T14:53:34.211Z,1.70
2022-08-27T14:56:01.960Z,2.00
2022-08-27T14:58:29.523Z,2.23
2022-08-27T15:00:57.964Z,1.70
2022-08-27T15:03:33.370Z,1.93
2022-08-27T15:06:00.407Z,1.80
2022-08-27T15:08:30.509Z,1.93
2022-08-27T15:10:59.303Z,1.80
2022-08-27T15:13:27.220Z,1.87
2022-08-27T15:15:57.051Z,1.50
2022-08-27T15:18:24.232Z,1.83
2022-08-27T15:20:52.107Z,2.10
2022-08-27T15:23:21.968Z,1.63
2022-08-27T15:25:51.772Z,1.60
2022-08-27T15:28:22.472Z,1.90
2022-08-27T15:30:55.200Z,1.77
2022-08-27T15:33:25.181Z,1.90
2022-08-27T15:35:52.440Z,2.00
2022-08-27T15:38:19.239Z,1.83
2022-08-27T15:40:46.311Z,1.90
2022-08-27T15:43:13.267Z,2.07
2022-08-27T15:45:40.095Z,2.03
2022-08-27T15:48:07.244Z,1.90
2022-08-27T15:50:35.462Z,2.07
2022-08-27T15:53:06.373Z,2.00
2022-08-27T15:55:36.777Z,1.90
2022-08-27T15:58:04.867Z,1.70
2022-08-27T16:00:34.374Z,1.97
2022-08-27T16:03:03.603Z,1.77
2022-08-27T16:05:33.340Z,1.47
2022-08-27T16:08:00.213Z,1.97
2022-08-27T16:10:27.887Z,1.90
2022-08-27T16:12:54.637Z,1.93
2022-08-27T16:15:21.366Z,1.70
2022-08-27T16:17:51.180Z,1.80
2022-08-27T16:20:17.857Z,1.90
2022-08-27T16:22:47.025Z,2.00
2022-08-27T16:25:18.488Z,2.03
2022-08-27T16:27:47.737Z,1.70
2022-08-27T16:30:15.558Z,1.90
2022-08-27T16:32:45.903Z,1.83
2022-08-27T16:35:15.415Z,1.80
2022-08-27T16:37:43.755Z,1.50
2022-08-27T16:40:12.457Z,1.57
2022-08-27T16:42:43.938Z,1.70
2022-08-27T16:45:14.226Z,2.20
2022-08-27T16:48:01.477Z,1.83
2022-08-27T16:50:37.955Z,1.33
2022-08-27T16:53:08.631Z,1.90
2022-08-27T16:55:37.738Z,1.63
2022-08-27T16:58:07.750Z,1.60
2022-08-27T17:00:37.752Z,1.70
2022-08-27T17:03:05.441Z,1.47
2022-08-27T17:05:34.699Z,1.83
2022-08-27T17:08:06.370Z,1.70
2022-08-27T17:10:41.902Z,1.63
2022-08-27T17:13:09.557Z,1.47
2022-08-27T17:15:36.407Z,1.20
2022-08-27T17:18:03.959Z,1.60
2022-08-27T17:20:31.793Z,1.50
2022-08-27T17:22:59.369Z,1.63
2022-08-27T17:25:29.854Z,1.47
2022-08-27T17:28:00.741Z,1.67
2022-08-27T17:30:28.090Z,1.17
2022-08-27T17:32:56.238Z,1.40
2022-08-27T17:35:23.316Z,1.30
2022-08-27T17:37:50.131Z,1.20
2022-08-27T17:40:16.962Z,1.40
2022-08-27T17:42:43.807Z,1.57
2022-08-27T17:45:10.953Z,1.23
2022-08-27T17:47:37.985Z,1.20
2022-08-27T17:50:05.944Z,1.20
2022-08-27T17:52:33.518Z,1.67
2022-08-27T17:55:00.422Z,1.10
2022-08-27T17:57:40.331Z,1.23
2022-08-27T18:00:10.801Z,1.47
2022-08-27T18:02:49.169Z,1.10
2022-08-27T18:05:18.287Z,1.47
2022-08-27T18:07:46.578Z,1.40
2022-08-27T18:10:19.235Z,1.10
2022-08-27T18:12:46.668Z,1.10
2022-08-27T18:15:27.842Z,1.13
2022-08-27T18:17:56.599Z,1.47
2022-08-27T18:20:25.962Z,1.33
2022-08-27T18:22:53.061Z,1.40
2022-08-27T18:25:24.576Z,1.30
2022-08-27T18:27:54.486Z,1.70
2022-08-27T18:30:21.918Z,1.40
2022-08-27T18:32:49.053Z,1.50
2022-08-27T18:35:22.449Z,1.67
2022-08-27T18:37:49.776Z,1.50
2022-08-27T18:40:18.667Z,1.40
2022-08-27T18:42:46.278Z,1.47
2022-08-27T18:45:27.030Z,1.13
2022-08-27T18:47:58.157Z,1.33
2022-08-27T18:50:26.014Z,1.20
2022-08-27T18:52:55.133Z,1.00
2022-08-27T18:55:26.027Z,1.43
2022-08-27T18:57:53.225Z,1.30
2022-08-27T19:00:21.019Z,1.37
2022-08-27T19:02:52.390Z,1.30
2022-08-27T19:05:26.923Z,1.40
2022-08-27T19:07:55.417Z,1.37
2022-08-27T19:10:22.265Z,1.40
2022-08-27T19:12:49.079Z,1.20
2022-08-27T19:15:16.264Z,1.30
2022-08-27T19:17:46.213Z,1.23
2022-08-27T19:20:13.356Z,1.40
2022-08-27T19:22:40.356Z,1.53
2022-08-27T19:25:07.599Z,1.40
2022-08-27T19:27:35.176Z,1.50
2022-08-27T19:30:02.377Z,1.53
2022-08-27T19:32:30.519Z,1.30
2022-08-27T19:34:57.810Z,1.33
2022-08-27T19:37:27.347Z,1.10
2022-08-27T19:39:54.321Z,1.40
2022-08-27T19:42:21.574Z,1.53
2022-08-27T19:44:48.748Z,1.40
2022-08-27T19:47:21.363Z,1.73
2022-08-27T19:49:49.963Z,1.23
2022-08-27T19:52:16.897Z,1.30
2022-08-27T19:55:03.292Z,1.27
2022-08-27T19:57:30.427Z,1.20
2022-08-27T19:59:57.582Z,1.20
2022-08-27T20:02:24.882Z,1.40
2022-08-27T20:05:14.272Z,1.33
2022-08-27T20:07:38.388Z,1.53
2022-08-27T20:10:08.314Z,1.33
2022-08-27T20:12:36.459Z,1.13
2022-08-27T20:15:06.277Z,1.70
2022-08-27T20:17:33.586Z,1.23
2022-08-27T20:20:00.562Z,1.33
2022-08-27T20:22:28.033Z,1.40
2022-08-27T20:24:54.874Z,1.17
2022-08-27T20:27:21.742Z,1.40
2022-08-27T20:29:49.017Z,1.50
2022-08-27T20:32:15.916Z,1.93
2022-08-27T20:34:42.893Z,1.30
2022-08-27T20:37:09.741Z,1.80
2022-08-27T20:39:36.533Z,1.13
2022-08-27T20:42:03.545Z,1.47
2022-08-27T20:44:31.598Z,1.70
2022-08-27T20:47:00.329Z,1.50
2022-08-27T20:49:27.994Z,1.30
2022-08-27T20:52:03.220Z,1.40
2022-08-27T20:54:31.613Z,1.30
2022-08-27T20:56:58.731Z,1.50
2022-08-27T20:59:44.882Z,1.33
2022-08-27T21:02:13.949Z,1.30
2022-08-27T21:04:46.507Z,1.50
2022-08-27T21:07:14.877Z,1.23
2022-08-27T21:09:55.843Z,1.40
2022-08-27T21:12:24.000Z,1.37
2022-08-27T21:14:54.944Z,1.40
2022-08-27T21:17:24.457Z,1.30
2022-08-27T21:19:51.500Z,1.57
2022-08-27T21:22:18.985Z,1.37
2022-08-27T21:24:47.465Z,1.67
2022-08-27T21:27:15.727Z,1.70
2022-08-27T21:29:44.753Z,1.53
2022-08-27T21:32:12.167Z,1.30
2022-08-27T21:34:39.381Z,1.40
2022-08-27T21:37:06.160Z,1.60
2022-08-27T21:39:34.424Z,1.40
2022-08-27T21:42:01.626Z,1.63
2022-08-27T21:44:29.902Z,1.47
2022-08-27T21:47:03.919Z,1.77
2022-08-27T21:49:34.586Z,1.57
2022-08-27T21:52:08.274Z,1.30
2022-08-27T21:54:37.960Z,1.50
2022-08-27T21:57:05.390Z,1.60
2022-08-27T21:59:33.232Z,1.40
2022-08-27T22:02:01.178Z,1.70
2022-08-27T22:04:30.899Z,1.40
2022-08-27T22:06:59.166Z,1.60
2022-08-27T22:09:26.623Z,1.70
2022-08-27T22:11:53.398Z,1.50
2022-08-27T22:14:20.240Z,1.80
2022-08-27T22:16:46.988Z,1.73
2022-08-27T22:19:13.732Z,2.33
2022-08-27T22:21:40.414Z,1.70
2022-08-27T22:24:07.514Z,1.67
2022-08-27T22:26:34.151Z,1.50
2022-08-27T22:29:03.261Z,1.50
2022-08-27T22:31:32.578Z,1.80
2022-08-27T22:34:00.519Z,1.90
2022-08-27T22:36:27.672Z,1.50
2022-08-27T22:38:54.723Z,1.87
2022-08-27T22:41:26.789Z,1.50
2022-08-27T22:43:56.757Z,1.47
2022-08-27T22:46:24.835Z,1.60
2022-08-27T22:48:51.630Z,1.70
2022-08-27T22:51:18.470Z,2.20
2022-08-27T22:53:45.914Z,1.90
2022-08-27T22:56:13.078Z,1.67
2022-08-27T22:58:40.710Z,1.90
2022-08-27T23:01:13.752Z,1.40
2022-08-27T23:03:40.763Z,1.93
2022-08-27T23:06:07.678Z,2.20
2022-08-27T23:08:34.449Z,1.53
2022-08-27T23:11:03.282Z,1.80
2022-08-27T23:13:31.551Z,1.43
2022-08-27T23:15:59.530Z,1.70
2022-08-27T23:18:26.620Z,1.60
2022-08-27T23:20:53.568Z,1.67
2022-08-27T23:23:20.421Z,1.80
2022-08-27T23:26:05.914Z,1.70
2022-08-27T23:28:32.769Z,1.60
2022-08-27T23:30:59.951Z,1.90
2022-08-27T23:33:26.741Z,2.37
2022-08-27T23:35:53.620Z,2.50
2022-08-27T23:38:21.849Z,1.70
2022-08-27T23:40:49.757Z,2.10
2022-08-27T23:43:18.319Z,2.10
2022-08-27T23:45:45.169Z,2.27
2022-08-27T23:48:13.127Z,2.10
2022-08-27T23:50:41.309Z,2.00
2022-08-27T23:53:08.299Z,1.73
2022-08-27T23:55:35.182Z,2.00
2022-08-27T23:58:02.649Z,1.77
